CST,Max TemperatureF,Mean TemperatureF,Min TemperatureF,Max Dew PointF,MeanDew PointF,Min DewpointF,Max Humidity, Mean Humidity, Min Humidity, Max Sea Level PressureIn, Mean Sea Level PressureIn, Min Sea Level PressureIn, Max VisibilityMiles, Mean VisibilityMiles, Min VisibilityMiles, Max Wind SpeedMPH, Mean Wind SpeedMPH, Max Gust SpeedMPH,PrecipitationIn, CloudCover, Events, WindDirDegrees
2012-11-1,64,50,35,41,38,32,86,66,41,30.05,29.98,29.90,10,10,10,13,7,,0.00,0,,90
2012-11-2,51,39,26,42,36,25,97,84,60,30.13,29.96,29.86,10,6,0,23,7,28,0.00,3,Fog,39
2012-11-3,59,42,24,41,33,23,96,75,45,30.22,30.17,30.13,10,9,4,12,6,,0.00,1,,316
2012-11-4,61,46,32,42,36,30,92,71,37,30.14,30.08,30.02,10,10,10,13,6,,0.00,2,Rain,287
2012-11-5,53,45,37,39,35,32,89,71,48,30.22,30.13,30.01,10,10,10,20,9,22,0.00,4,,330
2012-11-6,61,46,32,37,27,19,89,53,20,30.19,30.12,30.00,10,10,10,25,11,33,0.00,1,,306
2012-11-7,61,43,25,28,25,20,82,46,26,30.17,30.03,29.90,10,10,10,20,9,25,0.00,0,,164
2012-11-8,64,48,31,33,30,26,78,53,30,29.91,29.88,29.84,10,10,7,16,9,20,0.00,0,,53
2012-11-9,47,40,32,40,36,30,97,88,71,29.87,29.76,29.60,10,6,0,13,6,20,0.00,6,Fog,40
2012-11-10,61,44,27,48,36,21,98,87,54,29.82,29.57,29.41,10,6,0,26,6,37,0.00,6,Fog,351
2012-11-11,34,23,12,19,12,7,81,62,33,30.20,30.02,29.83,10,10,10,24,16,32,0.00,1,,310
2012-11-12,46,28,10,16,8,5,85,53,19,30.32,30.27,30.19,10,10,7,22,8,28,0.00,0,,296
2012-11-13,53,34,14,15,11,6,76,46,16,30.31,30.24,30.18,10,10,2,8,2,,0.03,1,,175
2012-11-14,58,38,18,30,22,14,92,58,29,30.28,30.20,30.11,10,10,10,14,7,16,0.00,0,,246
2012-11-15,57,40,22,28,24,16,77,51,30,30.43,30.30,30.13,10,10,7,15,6,21,0.00,1,,13
2012-11-16,57,36,16,36,26,13,91,66,36,30.42,30.29,30.17,10,10,10,21,5,25,0.00,0,,166
2012-11-17,59,44,30,36,32,24,83,67,38,30.17,30.09,30.05,10,10,7,15,9,18,0.00,0,,166
2012-11-18,58,43,28,35,30,23,96,69,42,30.06,29.99,29.92,10,10,7,15,4,18,0.00,0,,169
2012-11-19,64,46,28,36,29,22,91,66,27,30.20,30.10,29.97,10,9,5,17,9,23,0.00,0,,299
2012-11-20,70,46,22,32,28,19,88,49,23,30.21,30.14,30.07,10,10,4,16,7,23,0.00,0,,210
2012-11-21,67,48,29,33,27,21,85,47,19,30.07,29.92,29.77,10,10,5,17,6,22,0.00,0,,174
2012-11-22,56,42,29,36,25,19,69,55,34,30.40,30.04,29.76,10,10,10,31,11,36,0.00,0,,311
2012-11-23,41,29,17,22,13,11,76,53,32,30.56,30.45,30.27,10,10,5,20,11,26,0.00,0,,293
2012-11-24,61,43,25,23,19,14,69,45,22,30.27,29.98,29.83,10,10,7,13,7,,0.00,0,,195
2012-11-25,50,36,23,31,23,18,79,57,35,30.10,29.98,29.92,10,10,10,14,6,16,0.00,1,,35
2012-11-26,34,26,17,27,23,15,94,81,62,30.42,30.31,30.10,10,8,2,18,9,23,0.00,4,Snow,41
2012-11-27,48,31,14,27,21,12,94,76,41,30.37,30.23,30.12,10,10,7,13,7,18,0.00,0,,241
2012-11-28,49,30,10,27,20,8,90,69,41,30.30,30.19,30.03,10,10,7,14,6,16,0.00,0,,219
2012-11-29,66,42,17,27,19,14,89,57,15,30.03,29.96,29.87,10,10,7,10,4,,0.00,0,,281
2012-11-30,57,40,24,32,26,20,85,67,38,30.07,29.99,29.87,10,10,10,17,6,17,0.00,0,,182